Accueil
METAR-TAF:

METAR-TAF

Aéroports :

New Century AirCenter

Olathe, Kansas, États-Unis

latitude: 38-49-28N, longitude: 094-53-13W, altitude: 331 m

Observation

Le bulletin a été fait il y a 1 heure et 26 minutes, à 14:53 UTC
Vent 9 kt de nord/nord-ouest
Température 2°C
Humidité 75%
Pression 1027 hPa
Visibilité: 16.1 km
Ciel clair

METAR: KIXD 141453Z 33009KT 10SM CLR 02/M02 A3034 RMK AO2 SLP281 T00171017 51025

Heure: 10:19 (16:19 UTC)

Prévision

Le bulletin a été fait il y a 4 heures et 53 minutes, à 11:26 UTC
Prévision valable du 14 à 12 UTC au 15 à 12 UTC
Vent 7 kt de nord/nord-ouest
Visibilité: 10 km
Nuages épars à une hauteur de 5000 ft
Temporairement
du 14 à 12 UTC au 14 à 13 UTC
Ciel couvert à une hauteur de 2300 ft
A partir de 15 à 0300 UTC
Vent 5 kt de sud
Visibilité: 10 km
Ciel clair

TAF: KIXD 141126Z 1412/1512 33007KT P6SM SCT050 TEMPO 1412/1413 OVC023 FM150300 17005KT P6SM SKC

Observations et prévisions météorologiques de plus de 4000 aéroports (messages METAR et TAF).

Les stations disponibles sont représentées par des disques jaunes et rouges sur la carte.

Passer la souris dessus pour voir le nom de la station.

Cliquer dessus pour voir les observations et prévisions météorologiques.

Pour changer de carte: cliquez sur les boutons verts avec une croix noire pour zoomer, sur le bouton vert avec un tiret pour effectuer un zoom arrière, ou sur les flèches vertes pour les cartes adjacentes.


METAR-TAF: